createdAt,value
2023-02-24T00:02:15.244Z,30.55
2023-02-24T00:04:42.459Z,28.17
2023-02-24T00:07:11.642Z,28.35
2023-02-24T00:09:39.517Z,27.00
2023-02-24T00:12:10.052Z,28.10
2023-02-24T00:14:39.572Z,29.77
2023-02-24T00:17:08.388Z,28.55
2023-02-24T00:19:37.750Z,27.63
2023-02-24T00:22:06.549Z,28.38
2023-02-24T00:24:34.745Z,28.45
2023-02-24T00:27:08.012Z,28.50
2023-02-24T00:29:40.320Z,28.42
2023-02-24T00:32:13.074Z,29.95
2023-02-24T00:34:41.103Z,28.35
2023-02-24T00:37:09.414Z,28.70
2023-02-24T00:39:41.839Z,30.02
2023-02-24T00:42:11.989Z,26.95
2023-02-24T00:44:48.645Z,28.50
2023-02-24T00:47:16.989Z,28.27
2023-02-24T00:49:44.796Z,29.55
2023-02-24T00:52:18.158Z,27.63
2023-02-24T00:54:47.206Z,28.60
2023-02-24T00:57:14.923Z,28.88
2023-02-24T00:59:47.578Z,28.17
2023-02-24T01:02:15.711Z,28.92
2023-02-24T01:04:44.857Z,29.27
2023-02-24T01:07:14.201Z,29.85
2023-02-24T01:09:43.993Z,30.77
2023-02-24T01:12:31.557Z,30.20
2023-02-24T01:14:59.524Z,29.20
2023-02-24T01:17:26.992Z,29.88
2023-02-24T01:19:55.134Z,28.55
2023-02-24T01:22:23.941Z,29.75
2023-02-24T01:24:51.141Z,30.90
2023-02-24T01:27:19.577Z,30.35
2023-02-24T01:29:48.165Z,30.35
2023-02-24T01:32:19.766Z,31.77
2023-02-24T01:34:48.275Z,29.77
2023-02-24T01:37:19.556Z,30.27
2023-02-24T01:39:47.438Z,28.77
2023-02-24T01:42:19.331Z,30.45
2023-02-24T01:44:47.655Z,30.17
2023-02-24T01:47:23.323Z,29.65
2023-02-24T01:49:52.900Z,30.45
2023-02-24T01:52:21.887Z,30.08
2023-02-24T01:55:08.557Z,29.23
2023-02-24T01:57:38.742Z,30.35
2023-02-24T02:00:12.151Z,29.83
2023-02-24T02:02:45.349Z,29.88
2023-02-24T02:05:13.822Z,31.75
2023-02-24T02:07:42.255Z,30.15
2023-02-24T02:10:11.243Z,30.10
2023-02-24T02:12:44.350Z,30.08
2023-02-24T02:15:13.796Z,31.75
2023-02-24T02:18:20.061Z,30.52
2023-02-24T02:21:19.182Z,30.65
2023-02-24T02:24:13.780Z,30.00
2023-02-24T02:27:02.131Z,31.42
2023-02-24T02:29:51.453Z,32.15
2023-02-24T02:32:36.356Z,33.38
2023-02-24T02:35:04.119Z,30.75
2023-02-24T02:37:44.828Z,30.42
2023-02-24T02:40:18.734Z,33.65
2023-02-24T02:42:58.966Z,33.65
2023-02-24T02:45:33.667Z,33.10
2023-02-24T02:48:12.274Z,35.10
2023-02-24T02:51:05.116Z,33.75
2023-02-24T02:53:52.964Z,33.90
2023-02-24T02:56:25.366Z,34.58
2023-02-24T02:58:54.668Z,33.73
2023-02-24T03:01:25.245Z,35.58
2023-02-24T03:03:55.673Z,36.55
2023-02-24T03:07:15.757Z,35.35
2023-02-24T03:09:45.636Z,36.47
2023-02-24T03:12:16.669Z,35.85
2023-02-24T03:15:07.711Z,36.55
2023-02-24T03:17:40.904Z,35.88
2023-02-24T03:20:22.463Z,37.80
2023-02-24T03:22:55.068Z,38.13
2023-02-24T03:25:26.106Z,40.58
2023-02-24T03:27:57.210Z,39.25
2023-02-24T03:31:06.055Z,39.53
2023-02-24T03:33:41.390Z,40.60
2023-02-24T03:36:08.981Z,41.05
2023-02-24T03:38:38.671Z,40.17
2023-02-24T03:41:12.537Z,41.35
2023-02-24T03:43:45.366Z,41.63
2023-02-24T03:46:15.153Z,41.97
2023-02-24T03:48:48.952Z,42.83
2023-02-24T03:51:23.421Z,44.20
2023-02-24T03:54:18.446Z,44.55
2023-02-24T03:57:09.214Z,43.92
2023-02-24T03:59:44.950Z,46.22
2023-02-24T04:02:19.796Z,46.63
2023-02-24T04:04:59.704Z,46.72
2023-02-24T04:07:32.272Z,48.53
2023-02-24T04:10:12.753Z,48.75
2023-02-24T04:12:52.462Z,49.60
2023-02-24T04:15:43.749Z,51.28
2023-02-24T04:18:21.207Z,49.78
2023-02-24T04:20:51.135Z,53.85
2023-02-24T04:23:23.255Z,51.85
2023-02-24T04:25:52.755Z,52.78
2023-02-24T04:28:22.369Z,52.63
2023-02-24T04:30:53.198Z,53.03
2023-02-24T04:33:20.761Z,56.58
2023-02-24T04:35:50.789Z,55.58
2023-02-24T04:38:19.847Z,57.47
2023-02-24T04:40:49.991Z,57.05
2023-02-24T04:43:17.547Z,55.10
2023-02-24T04:45:45.344Z,55.90
2023-02-24T04:48:13.133Z,57.80
2023-02-24T04:50:43.128Z,55.72
2023-02-24T04:53:16.695Z,55.97
2023-02-24T04:55:50.535Z,59.33
2023-02-24T04:58:20.049Z,56.97
2023-02-24T05:00:49.312Z,56.25
2023-02-24T05:03:18.501Z,57.17
2023-02-24T05:05:58.102Z,58.10
2023-02-24T05:08:27.258Z,60.72
2023-02-24T05:10:56.833Z,60.67
2023-02-24T05:13:31.751Z,57.55
2023-02-24T05:16:06.344Z,60.42
2023-02-24T05:18:42.896Z,60.83
2023-02-24T05:21:34.723Z,60.17
2023-02-24T05:24:07.028Z,60.60
2023-02-24T05:26:35.997Z,60.03
2023-02-24T05:29:05.589Z,60.00
2023-02-24T05:31:33.124Z,63.65
2023-02-24T05:34:03.290Z,61.70
2023-02-24T05:36:33.870Z,61.42
2023-02-24T05:39:08.056Z,61.90
2023-02-24T05:41:38.860Z,62.05
2023-02-24T05:44:09.368Z,59.20
2023-02-24T05:46:39.174Z,62.58
2023-02-24T05:49:11.844Z,60.85
2023-02-24T05:51:43.394Z,59.15
2023-02-24T05:54:13.375Z,59.90
2023-02-24T05:56:45.101Z,59.50
2023-02-24T05:59:12.966Z,58.58
2023-02-24T06:01:41.690Z,59.08
2023-02-24T06:04:09.683Z,60.13
2023-02-24T06:06:39.347Z,58.42
2023-02-24T06:09:16.622Z,57.22
2023-02-24T06:11:45.284Z,59.80
2023-02-24T06:14:12.909Z,57.72
2023-02-24T06:16:41.863Z,58.80
2023-02-24T06:19:11.012Z,56.75
2023-02-24T06:21:41.508Z,54.90
2023-02-24T06:24:14.782Z,53.33
2023-02-24T06:26:45.666Z,56.22
2023-02-24T06:29:17.407Z,53.35
2023-02-24T06:31:45.408Z,53.75
2023-02-24T06:34:18.369Z,55.85
2023-02-24T06:36:47.131Z,53.80
2023-02-24T06:39:14.726Z,51.65
2023-02-24T06:41:42.691Z,54.20
2023-02-24T06:44:10.077Z,53.20
2023-02-24T06:46:37.513Z,52.78
2023-02-24T06:49:04.747Z,51.35
2023-02-24T06:51:32.155Z,52.42
2023-02-24T06:53:59.758Z,52.33
2023-02-24T06:56:27.874Z,50.35
2023-02-24T06:58:56.444Z,51.65
2023-02-24T07:01:26.174Z,51.63
2023-02-24T07:04:17.774Z,51.53
2023-02-24T07:06:49.460Z,49.45
2023-02-24T07:09:18.872Z,51.10
2023-02-24T07:11:48.584Z,50.47
2023-02-24T07:14:15.796Z,53.58
2023-02-24T07:16:45.648Z,51.70
2023-02-24T07:19:15.626Z,50.58
2023-02-24T07:21:50.104Z,50.60
2023-02-24T07:24:24.975Z,53.97
2023-02-24T07:26:57.251Z,52.20
2023-02-24T07:29:25.850Z,52.42
2023-02-24T07:31:56.815Z,51.80
2023-02-24T07:34:25.359Z,53.03
2023-02-24T07:36:53.126Z,51.65
2023-02-24T07:39:23.001Z,50.70
2023-02-24T07:41:51.959Z,53.40
2023-02-24T07:44:20.410Z,49.97
2023-02-24T07:46:49.291Z,48.30
2023-02-24T07:49:19.937Z,51.85
2023-02-24T07:51:52.965Z,52.15
2023-02-24T07:54:22.054Z,51.65
2023-02-24T07:56:56.952Z,50.33
2023-02-24T07:59:47.161Z,50.50
2023-02-24T08:02:15.426Z,49.92
2023-02-24T08:04:50.424Z,50.65
2023-02-24T08:07:25.032Z,50.40
2023-02-24T08:10:11.771Z,50.70
2023-02-24T08:12:42.935Z,49.00
2023-02-24T08:15:17.801Z,51.67
2023-02-24T08:17:47.659Z,49.35
2023-02-24T08:20:15.648Z,48.92
2023-02-24T08:22:46.643Z,46.88
2023-02-24T08:25:19.202Z,46.78
2023-02-24T08:28:06.983Z,47.38
2023-02-24T08:30:40.647Z,45.60
2023-02-24T08:33:10.855Z,46.58
2023-02-24T08:35:44.985Z,45.50
2023-02-24T08:38:16.121Z,43.53
2023-02-24T08:40:54.582Z,44.63
2023-02-24T08:43:31.029Z,43.38
2023-02-24T08:46:13.611Z,43.08
2023-02-24T08:48:43.291Z,43.28
2023-02-24T08:51:18.067Z,43.10
2023-02-24T08:53:47.227Z,41.08
2023-02-24T08:56:24.229Z,42.15
2023-02-24T08:58:57.067Z,40.83
2023-02-24T09:01:34.959Z,42.38
2023-02-24T09:04:08.651Z,43.90
2023-02-24T09:06:45.269Z,40.75
2023-02-24T09:09:32.372Z,42.55
2023-02-24T09:12:00.398Z,44.13
2023-02-24T09:14:36.624Z,43.33
2023-02-24T09:17:06.862Z,44.08
2023-02-24T09:19:46.603Z,40.67
2023-02-24T09:22:21.268Z,42.88
2023-02-24T09:24:51.297Z,43.40
2023-02-24T09:27:18.354Z,41.08
2023-02-24T09:29:51.886Z,40.58
2023-02-24T09:32:19.081Z,40.97
2023-02-24T09:34:47.273Z,40.67
2023-02-24T09:37:33.739Z,39.70
2023-02-24T09:40:19.914Z,39.17
2023-02-24T09:42:47.071Z,38.05
2023-02-24T09:45:33.389Z,40.13
2023-02-24T09:48:10.975Z,40.30
2023-02-24T09:51:04.116Z,40.65
2023-02-24T09:56:22.883Z,35.00
2023-02-24T09:59:14.758Z,39.20
2023-02-24T10:01:50.561Z,38.58
2023-02-24T10:04:29.816Z,31.58
2023-02-24T10:07:09.252Z,30.05
2023-02-24T10:09:41.965Z,27.13
2023-02-24T10:12:32.038Z,27.77
2023-02-24T10:15:22.848Z,27.38
2023-02-24T10:17:55.579Z,26.45
2023-02-24T10:20:39.190Z,27.35
2023-02-24T10:23:15.351Z,25.85
2023-02-24T10:25:54.341Z,26.27
2023-02-24T10:28:35.731Z,26.67
2023-02-24T10:31:27.401Z,25.40
2023-02-24T10:34:06.308Z,26.75
2023-02-24T10:36:36.853Z,25.58
2023-02-24T10:39:20.788Z,25.23
2023-02-24T10:41:57.516Z,25.75
2023-02-24T10:44:36.145Z,23.95
2023-02-24T10:47:12.751Z,23.83
2023-02-24T10:50:01.232Z,24.00
2023-02-24T10:52:55.274Z,24.90
2023-02-24T10:55:45.850Z,23.20
2023-02-24T10:58:56.974Z,23.27
2023-02-24T11:01:46.343Z,23.75
2023-02-24T11:04:39.301Z,22.90
2023-02-24T11:07:24.697Z,21.92
2023-02-24T11:10:12.301Z,21.75
2023-02-24T11:13:10.107Z,19.77
2023-02-24T11:16:02.265Z,18.15
2023-02-24T11:18:30.941Z,19.00
2023-02-24T11:21:00.715Z,17.88
2023-02-24T11:23:50.006Z,17.50
2023-02-24T11:26:21.236Z,18.08
2023-02-24T11:29:18.010Z,18.85
2023-02-24T11:32:00.064Z,18.13
2023-02-24T11:34:52.261Z,18.58
2023-02-24T11:37:43.392Z,17.88
2023-02-24T11:40:17.509Z,17.65
2023-02-24T11:42:56.234Z,17.35
2023-02-24T11:45:51.011Z,16.25
2023-02-24T11:48:19.683Z,15.88
2023-02-24T11:50:51.395Z,15.90
2023-02-24T11:53:36.285Z,14.23
2023-02-24T11:56:09.078Z,16.23
2023-02-24T11:59:13.591Z,14.43
2023-02-24T12:01:46.035Z,14.82
2023-02-24T12:04:37.565Z,14.87
2023-02-24T12:07:20.898Z,12.93
2023-02-24T12:09:53.752Z,13.38
2023-02-24T12:12:29.206Z,13.50
2023-02-24T12:14:58.258Z,12.98
2023-02-24T12:17:58.145Z,14.18
2023-02-24T12:20:35.121Z,14.95
2023-02-24T12:23:15.979Z,14.10
2023-02-24T12:26:09.081Z,15.75
2023-02-24T12:29:04.351Z,15.15
2023-02-24T12:31:45.963Z,16.45
2023-02-24T12:34:35.288Z,16.88
2023-02-24T12:37:33.194Z,17.52
2023-02-24T12:40:26.187Z,17.02
2023-02-24T12:42:59.617Z,19.23
2023-02-24T12:45:54.740Z,17.52
2023-02-24T12:48:40.705Z,19.08
2023-02-24T12:51:17.381Z,19.25
2023-02-24T12:53:52.350Z,17.52
2023-02-24T12:56:52.117Z,17.02
2023-02-24T12:59:21.637Z,17.35
2023-02-24T13:01:51.946Z,17.17
2023-02-24T13:04:39.669Z,16.15
2023-02-24T13:07:22.798Z,14.65
2023-02-24T13:10:24.082Z,15.07
2023-02-24T13:12:53.139Z,15.00
2023-02-24T13:15:25.565Z,16.15
2023-02-24T13:17:57.672Z,13.95
2023-02-24T13:20:31.314Z,14.82
2023-02-24T13:22:59.935Z,14.60
2023-02-24T13:25:34.109Z,13.07
2023-02-24T13:28:04.240Z,13.77
2023-02-24T13:30:34.020Z,14.07
2023-02-24T13:33:27.405Z,13.77
2023-02-24T13:36:16.541Z,13.50
2023-02-24T13:38:46.970Z,12.73
2023-02-24T13:41:21.680Z,13.73
2023-02-24T13:44:02.612Z,13.07
2023-02-24T13:46:58.518Z,12.95
2023-02-24T13:49:28.914Z,12.57
2023-02-24T13:52:00.572Z,12.88
2023-02-24T13:54:31.078Z,13.48
2023-02-24T13:57:49.496Z,12.90
2023-02-24T14:00:22.535Z,12.10
2023-02-24T14:02:52.992Z,13.02
2023-02-24T14:05:27.513Z,13.48
2023-02-24T14:07:55.397Z,13.60
2023-02-24T14:10:25.368Z,13.10
2023-02-24T14:13:18.406Z,12.15
2023-02-24T14:15:47.324Z,12.00
2023-02-24T14:18:26.329Z,12.90
2023-02-24T14:20:55.761Z,11.77
2023-02-24T14:23:31.814Z,11.98
2023-02-24T14:26:05.611Z,12.88
2023-02-24T14:28:34.897Z,11.95
2023-02-24T14:31:09.193Z,11.95
2023-02-24T14:33:38.048Z,11.85
2023-02-24T14:36:07.945Z,11.38
2023-02-24T14:38:36.840Z,12.45
2023-02-24T14:41:17.466Z,11.50
2023-02-24T14:43:44.592Z,12.50
2023-02-24T14:46:12.057Z,12.77
2023-02-24T14:48:39.315Z,12.15
2023-02-24T14:51:18.946Z,13.10
2023-02-24T14:53:50.208Z,11.77
2023-02-24T14:56:17.806Z,13.50
2023-02-24T14:58:52.406Z,13.70
2023-02-24T15:01:26.189Z,13.00
2023-02-24T15:04:00.598Z,12.23
2023-02-24T15:06:30.981Z,13.68
2023-02-24T15:09:01.647Z,12.85
2023-02-24T15:11:30.866Z,14.55
2023-02-24T15:14:06.275Z,13.85
2023-02-24T15:16:38.004Z,13.90
2023-02-24T15:19:05.477Z,13.35
2023-02-24T15:21:40.040Z,13.93
2023-02-24T15:24:31.103Z,15.63
2023-02-24T15:27:18.933Z,14.55
2023-02-24T15:30:05.253Z,15.27
2023-02-24T15:32:37.713Z,14.05
2023-02-24T15:35:06.139Z,14.03
2023-02-24T15:37:42.122Z,13.18
2023-02-24T15:40:20.934Z,12.77
2023-02-24T15:42:52.304Z,12.30
2023-02-24T15:45:30.104Z,12.65
2023-02-24T15:48:00.354Z,12.05
2023-02-24T15:50:29.352Z,11.20
2023-02-24T15:52:58.822Z,12.00
2023-02-24T15:55:27.928Z,10.98
2023-02-24T15:58:00.897Z,11.95
2023-02-24T16:00:28.801Z,12.35
2023-02-24T16:02:56.206Z,13.45
2023-02-24T16:05:23.628Z,15.25
2023-02-24T16:07:51.095Z,15.32
2023-02-24T16:10:22.449Z,16.23
2023-02-24T16:12:52.421Z,16.85
2023-02-24T16:15:31.744Z,18.10
2023-02-24T16:17:59.585Z,21.08
2023-02-24T16:20:31.735Z,17.58
2023-02-24T16:23:01.431Z,17.13
2023-02-24T16:25:29.902Z,14.30
2023-02-24T16:27:57.464Z,18.55
2023-02-24T16:30:27.116Z,14.07
2023-02-24T16:32:54.634Z,12.95
2023-02-24T16:35:21.947Z,13.98
2023-02-24T16:37:49.383Z,15.00
2023-02-24T16:40:20.370Z,14.30
2023-02-24T16:42:48.627Z,13.45
2023-02-24T16:45:15.864Z,15.35
2023-02-24T16:47:44.286Z,13.45
2023-02-24T16:50:20.166Z,10.32
2023-02-24T16:52:47.503Z,16.55
2023-02-24T16:55:15.238Z,17.45
2023-02-24T16:57:42.986Z,15.13
2023-02-24T17:00:12.966Z,29.38
2023-02-24T17:02:42.040Z,22.08
2023-02-24T17:05:28.937Z,23.77
2023-02-24T17:07:57.419Z,21.35
2023-02-24T17:10:25.822Z,19.63
2023-02-24T17:12:53.271Z,17.63
2023-02-24T17:15:23.034Z,20.70
2023-02-24T17:17:50.665Z,22.88
2023-02-24T17:20:19.848Z,14.65
2023-02-24T17:22:47.636Z,18.52
2023-02-24T17:25:17.316Z,12.80
2023-02-24T17:27:45.096Z,14.85
2023-02-24T17:30:14.690Z,13.13
2023-02-24T17:32:42.082Z,9.75
2023-02-24T17:35:10.332Z,10.93
2023-02-24T17:37:38.396Z,10.35
2023-02-24T17:40:06.878Z,10.40
2023-02-24T17:42:36.145Z,9.63
2023-02-24T17:45:04.399Z,13.18
2023-02-24T17:47:32.721Z,11.50
2023-02-24T17:50:00.570Z,15.15
2023-02-24T17:52:29.769Z,12.05
2023-02-24T17:54:57.292Z,12.77
2023-02-24T17:57:24.865Z,12.63
2023-02-24T17:59:52.051Z,14.15
2023-02-24T18:02:19.692Z,15.27
2023-02-24T18:04:49.443Z,16.27
2023-02-24T18:07:17.117Z,15.70
2023-02-24T18:09:45.757Z,15.32
2023-02-24T18:12:13.266Z,14.65
2023-02-24T18:14:40.812Z,15.00
2023-02-24T18:17:08.043Z,13.80
2023-02-24T18:19:35.947Z,15.80
2023-02-24T18:22:03.504Z,15.63
2023-02-24T18:24:30.713Z,12.68
2023-02-24T18:26:58.125Z,14.07
2023-02-24T18:29:25.288Z,15.13
2023-02-24T18:31:52.943Z,14.30
2023-02-24T18:34:20.442Z,13.80
2023-02-24T18:36:47.976Z,14.05
2023-02-24T18:39:15.297Z,14.77
2023-02-24T18:41:42.861Z,13.65
2023-02-24T18:44:10.439Z,13.73
2023-02-24T18:46:37.771Z,14.70
2023-02-24T18:49:06.820Z,13.88
2023-02-24T18:51:34.550Z,17.35
2023-02-24T18:54:02.756Z,14.43
2023-02-24T18:56:31.502Z,13.82
2023-02-24T18:58:59.777Z,12.43
2023-02-24T19:01:33.102Z,14.35
2023-02-24T19:04:01.490Z,15.65
2023-02-24T19:06:30.938Z,15.23
2023-02-24T19:09:09.823Z,15.32
2023-02-24T19:11:39.105Z,17.33
2023-02-24T19:14:06.836Z,17.60
2023-02-24T19:16:35.069Z,17.38
2023-02-24T19:19:02.399Z,16.27
2023-02-24T19:21:31.402Z,16.13
2023-02-24T19:24:08.378Z,17.65
2023-02-24T19:26:36.018Z,15.93
2023-02-24T19:29:04.112Z,18.38
2023-02-24T19:31:33.604Z,19.83
2023-02-24T19:34:04.040Z,22.85
2023-02-24T19:36:33.950Z,22.67
2023-02-24T19:39:01.619Z,21.08
2023-02-24T19:41:29.726Z,21.80
2023-02-24T19:43:57.332Z,19.67
2023-02-24T19:46:25.263Z,21.73
2023-02-24T19:48:52.638Z,19.88
2023-02-24T19:51:22.486Z,20.15
2023-02-24T19:53:54.003Z,20.33
2023-02-24T19:56:30.344Z,21.17
2023-02-24T19:58:59.318Z,22.42
2023-02-24T20:01:28.630Z,23.73
2023-02-24T20:04:00.513Z,25.95
2023-02-24T20:06:43.054Z,27.63
2023-02-24T20:09:15.627Z,26.23
2023-02-24T20:11:45.307Z,25.33
2023-02-24T20:14:13.428Z,24.33
2023-02-24T20:16:42.475Z,21.95
2023-02-24T20:19:11.828Z,21.75
2023-02-24T20:21:39.831Z,23.70
2023-02-24T20:24:11.145Z,20.98
2023-02-24T20:26:42.175Z,21.35
2023-02-24T20:29:11.429Z,20.75
2023-02-24T20:31:39.943Z,23.58
2023-02-24T20:34:09.303Z,25.02
2023-02-24T20:36:37.325Z,23.98
2023-02-24T20:39:06.765Z,25.77
2023-02-24T20:41:34.414Z,26.60
2023-02-24T20:44:01.645Z,26.67
2023-02-24T20:46:31.461Z,25.60
2023-02-24T20:49:06.783Z,26.27
2023-02-24T20:51:37.106Z,24.13
2023-02-24T20:54:05.898Z,25.08
2023-02-24T20:56:36.624Z,27.77
2023-02-24T20:59:31.873Z,31.52
2023-02-24T21:02:00.376Z,27.13
2023-02-24T21:04:27.518Z,29.92
2023-02-24T21:06:54.986Z,33.00
2023-02-24T21:09:22.390Z,33.42
2023-02-24T21:11:50.111Z,32.47
2023-02-24T21:14:17.655Z,31.42
2023-02-24T21:16:48.174Z,29.30
2023-02-24T21:19:15.917Z,31.70
2023-02-24T21:21:43.348Z,32.00
2023-02-24T21:24:10.866Z,28.25
2023-02-24T21:26:38.312Z,27.98
2023-02-24T21:29:05.423Z,25.17
2023-02-24T21:31:32.943Z,25.70
2023-02-24T21:34:00.055Z,25.80
2023-02-24T21:36:28.142Z,27.48
2023-02-24T21:38:55.832Z,25.65
2023-02-24T21:41:23.913Z,24.50
2023-02-24T21:43:55.662Z,26.88
2023-02-24T21:46:28.473Z,25.13
2023-02-24T21:48:57.620Z,23.75
2023-02-24T21:51:26.358Z,24.33
2023-02-24T21:53:55.169Z,24.88
2023-02-24T21:56:25.288Z,24.30
2023-02-24T21:58:56.761Z,27.08
2023-02-24T22:01:27.183Z,25.90
2023-02-24T22:03:56.106Z,24.70
2023-02-24T22:06:24.236Z,24.70
2023-02-24T22:08:51.869Z,24.02
2023-02-24T22:11:19.603Z,23.25
2023-02-24T22:13:47.274Z,23.05
2023-02-24T22:16:18.312Z,23.63
2023-02-24T22:18:46.334Z,22.92
2023-02-24T22:21:19.558Z,22.70
2023-02-24T22:26:16.853Z,20.10
2023-02-24T22:28:45.555Z,20.40
2023-02-24T22:31:14.775Z,21.45
2023-02-24T22:33:43.262Z,22.88
2023-02-24T22:36:14.838Z,21.35
2023-02-24T22:38:43.265Z,23.00
2023-02-24T22:41:16.514Z,21.33
2023-02-24T22:46:13.822Z,20.30
2023-02-24T22:48:41.125Z,20.00
2023-02-24T22:51:11.047Z,19.25
2023-02-24T22:53:41.256Z,19.08
2023-02-24T22:56:11.130Z,18.90
2023-02-24T22:58:39.123Z,19.33
2023-02-24T23:01:18.482Z,19.33
2023-02-24T23:03:48.621Z,19.65
2023-02-24T23:06:22.212Z,19.80
2023-02-24T23:08:50.883Z,19.33
2023-02-24T23:11:27.867Z,20.48
2023-02-24T23:13:56.248Z,20.48
2023-02-24T23:16:27.484Z,21.08
2023-02-24T23:18:56.276Z,19.13
2023-02-24T23:21:25.851Z,22.33
2023-02-24T23:23:57.855Z,21.85
2023-02-24T23:26:49.709Z,20.48
2023-02-24T23:29:18.229Z,21.48
2023-02-24T23:31:46.321Z,21.48
2023-02-24T23:34:14.639Z,21.65
2023-02-24T23:36:44.224Z,20.80
2023-02-24T23:39:13.645Z,22.20
2023-02-24T23:41:41.580Z,22.25
2023-02-24T23:44:08.908Z,22.55
2023-02-24T23:46:36.954Z,22.27
2023-02-24T23:49:05.296Z,22.20
2023-02-24T23:51:46.945Z,23.20
2023-02-24T23:54:15.713Z,24.13
2023-02-24T23:56:43.180Z,22.40
2023-02-24T23:59:10.416Z,23.05
